Time;durP1;ratioP1;P1;durP2;ratioP2;P2;SDS_P1;SDS_P2;PMS_P1;PMS_P2;Temp;Humidity;BMP_temperature;BMP_pressure;BME280_temperature;BME280_humidity;BME280_pressure;Samples;Min_cycle;Max_cycle;Signal;HPM_P1;HPM_P2
2022/07/12 00:00:50;;;;;;;;;;;14.80;99.90;;;;;;5052400;28;20280;-72
2022/07/12 00:03:16;;;;;;;;;;;14.80;99.90;;;;;;5034319;28;19913;-71
2022/07/12 00:05:41;;;;;;;;;;;14.80;99.90;;;;;;5034612;28;19935;-72
2022/07/12 00:08:07;;;;;;;;;;;14.80;99.90;;;;;;5052485;28;19912;-71
2022/07/12 00:10:32;;;;;;;;;;;14.80;99.90;;;;;;5034034;28;19912;-71
2022/07/12 00:12:58;;;;;;;;;;;14.80;99.90;;;;;;5033847;28;19913;-71
2022/07/12 00:15:24;;;;;;;;;;;14.80;99.90;;;;;;5051898;28;19916;-72
2022/07/12 00:17:49;;;;;;;;;;;14.80;99.90;;;;;;5052150;28;19920;-72
2022/07/12 00:20:15;;;;;;;;;;;14.80;99.90;;;;;;5051582;28;19959;-71
2022/07/12 00:22:41;;;;;;;;;;;14.80;99.90;;;;;;5033869;28;19962;-71
2022/07/12 00:25:06;;;;;;;;;;;14.80;99.90;;;;;;5033785;28;19935;-72
2022/07/12 00:27:32;;;;;;;;;;;14.80;99.90;;;;;;5051830;28;20013;-71
2022/07/12 00:29:57;;;;;;;;;;;14.90;99.90;;;;;;5052108;28;19982;-71
2022/07/12 00:32:23;;;;;;;;;;;14.90;99.90;;;;;;5052033;28;20083;-72
2022/07/12 00:34:48;;;;;;;;;;;15.00;99.90;;;;;;5051739;28;20011;-70
2022/07/12 00:37:14;;;;;;;;;;;14.90;99.90;;;;;;5051936;28;19920;-71
2022/07/12 00:39:39;;;;;;;;;;;14.90;99.90;;;;;;5051652;28;20240;-71
2022/07/12 00:42:05;;;;;;;;;;;14.90;99.90;;;;;;5051824;28;20169;-71
2022/07/12 00:44:33;;;;;;;;;;;14.90;99.90;;;;;;5051591;28;19999;-71
2022/07/12 00:46:59;;;;;;;;;;;14.90;99.90;;;;;;5033807;28;19970;-72
2022/07/12 00:49:25;;;;;;;;;;;14.90;99.90;;;;;;5051514;28;20007;-71
2022/07/12 00:51:50;;;;;;;;;;;14.90;99.90;;;;;;5051502;28;20011;-71
2022/07/12 00:54:16;;;;;;;;;;;14.90;99.90;;;;;;5051386;28;19916;-71
2022/07/12 00:56:42;;;;;;;;;;;14.80;99.90;;;;;;5051450;28;19909;-70
2022/07/12 00:59:08;;;;;;;;;;;14.80;99.90;;;;;;5051336;28;20272;-71
2022/07/12 01:01:33;;;;;;;;;;;14.90;99.90;;;;;;5051427;28;19912;-71
2022/07/12 01:04:00;;;;;;;;;;;14.80;99.90;;;;;;5051133;28;19916;-71
2022/07/12 01:06:25;;;;;;;;;;;14.80;99.90;;;;;;5033149;28;19917;-71
2022/07/12 01:08:51;;;;;;;;;;;14.80;99.90;;;;;;5051595;28;20272;-71
2022/07/12 01:11:16;;;;;;;;;;;14.80;99.90;;;;;;5051168;28;19909;-71
2022/07/12 01:13:42;;;;;;;;;;;14.80;99.90;;;;;;5033083;28;19917;-73
2022/07/12 01:16:08;;;;;;;;;;;14.80;99.90;;;;;;5033061;28;19919;-71
2022/07/12 01:18:35;;;;;;;;;;;14.90;99.90;;;;;;5050888;28;19917;-71
2022/07/12 01:21:02;;;;;;;;;;;14.80;99.90;;;;;;5050972;28;19948;-72
2022/07/12 01:23:28;;;;;;;;;;;14.80;99.90;;;;;;5050921;28;19916;-72
2022/07/12 01:25:53;;;;;;;;;;;14.80;99.90;;;;;;5032969;28;19978;-72
2022/07/12 01:28:19;;;;;;;;;;;14.80;99.90;;;;;;5051051;28;20330;-72
2022/07/12 01:30:46;;;;;;;;;;;14.80;99.90;;;;;;5050220;28;19913;-71
2022/07/12 01:33:12;;;;;;;;;;;14.80;99.90;;;;;;5033135;28;19917;-71
2022/07/12 01:35:37;;;;;;;;;;;14.80;99.90;;;;;;5051076;28;20365;-71
2022/07/12 01:38:03;;;;;;;;;;;14.70;99.90;;;;;;5051059;28;19917;-71
2022/07/12 01:40:29;;;;;;;;;;;14.70;99.90;;;;;;5032630;28;19921;-71
2022/07/12 01:42:55;;;;;;;;;;;14.70;99.90;;;;;;5051048;28;19921;-71
2022/07/12 01:45:21;;;;;;;;;;;14.70;99.90;;;;;;5050569;28;19940;-72
2022/07/12 01:47:46;;;;;;;;;;;14.70;99.90;;;;;;5050856;28;20039;-72
2022/07/12 01:50:12;;;;;;;;;;;14.60;99.90;;;;;;5050628;28;20046;-72
2022/07/12 01:52:39;;;;;;;;;;;14.60;99.90;;;;;;5050653;28;19944;-72
2022/07/12 01:55:05;;;;;;;;;;;14.50;99.90;;;;;;5032517;28;19939;-71
2022/07/12 01:57:32;;;;;;;;;;;14.60;99.90;;;;;;5050558;28;20007;-72
2022/07/12 01:59:59;;;;;;;;;;;14.60;99.90;;;;;;5050352;28;20372;-73
2022/07/12 02:02:25;;;;;;;;;;;14.60;99.90;;;;;;5032529;28;19923;-72
2022/07/12 02:04:50;;;;;;;;;;;14.60;99.90;;;;;;5032221;28;20349;-72
2022/07/12 02:07:16;;;;;;;;;;;14.50;99.90;;;;;;5050421;28;19916;-72
2022/07/12 02:09:41;;;;;;;;;;;14.50;99.90;;;;;;5050329;28;19951;-71
2022/07/12 02:12:07;;;;;;;;;;;14.50;99.90;;;;;;5032391;28;20212;-71
2022/07/12 02:14:32;;;;;;;;;;;14.50;99.90;;;;;;5050194;28;20373;-71
2022/07/12 02:16:58;;;;;;;;;;;14.40;99.90;;;;;;5050268;28;20289;-72
2022/07/12 02:19:23;;;;;;;;;;;14.50;99.90;;;;;;5050446;28;19952;-72
2022/07/12 02:21:49;;;;;;;;;;;14.30;99.90;;;;;;5050348;28;19943;-72
2022/07/12 02:24:14;;;;;;;;;;;14.40;99.90;;;;;;5032447;28;19913;-71
2022/07/12 02:26:40;;;;;;;;;;;14.40;99.90;;;;;;5050043;28;19912;-71
2022/07/12 02:29:06;;;;;;;;;;;14.50;99.90;;;;;;5050296;28;20272;-71
2022/07/12 02:31:31;;;;;;;;;;;14.40;99.90;;;;;;5049941;28;19999;-71
2022/07/12 02:33:57;;;;;;;;;;;14.40;99.90;;;;;;5050171;28;20283;-70
2022/07/12 02:36:23;;;;;;;;;;;14.40;99.90;;;;;;5050293;28;20405;-71
2022/07/12 02:38:48;;;;;;;;;;;14.30;99.90;;;;;;5032222;28;20042;-71
2022/07/12 02:41:14;;;;;;;;;;;14.40;99.90;;;;;;5028708;28;19921;-72
2022/07/12 02:43:39;;;;;;;;;;;14.40;99.90;;;;;;5034300;28;20011;-71
2022/07/12 02:46:09;;;;;;;;;;;14.40;99.90;;;;;;5033826;28;20297;-72
2022/07/12 02:48:35;;;;;;;;;;;14.30;99.90;;;;;;5034216;28;20012;-72
2022/07/12 02:51:00;;;;;;;;;;;14.30;99.90;;;;;;5033936;28;20016;-71
2022/07/12 02:53:26;;;;;;;;;;;14.30;99.90;;;;;;5034209;28;19944;-70
2022/07/12 02:55:51;;;;;;;;;;;14.30;99.90;;;;;;5032296;28;19939;-70
2022/07/12 02:58:17;;;;;;;;;;;14.30;99.90;;;;;;5033739;28;20288;-70
2022/07/12 03:00:44;;;;;;;;;;;14.30;99.90;;;;;;5033537;28;19913;-72
2022/07/12 03:03:10;;;;;;;;;;;14.30;99.90;;;;;;5033613;28;19917;-71
2022/07/12 03:05:36;;;;;;;;;;;14.40;99.90;;;;;;5033427;28;20016;-71
2022/07/12 03:08:04;;;;;;;;;;;14.30;99.90;;;;;;5033811;28;19928;-72
2022/07/12 03:10:30;;;;;;;;;;;14.30;99.90;;;;;;5032174;28;19952;-71
2022/07/12 03:12:56;;;;;;;;;;;14.30;99.90;;;;;;5033621;28;19964;-72
2022/07/12 03:15:22;;;;;;;;;;;14.30;99.90;;;;;;5033459;28;19924;-72
2022/07/12 03:17:47;;;;;;;;;;;14.30;99.90;;;;;;5033440;28;19917;-71
2022/07/12 03:20:14;;;;;;;;;;;14.30;99.90;;;;;;5033293;28;19960;-73
2022/07/12 03:22:40;;;;;;;;;;;14.30;99.90;;;;;;5033498;28;19925;-71
2022/07/12 03:25:07;;;;;;;;;;;14.30;99.90;;;;;;5031771;28;19913;-70
2022/07/12 03:27:32;;;;;;;;;;;14.30;99.90;;;;;;5033082;28;19921;-71
2022/07/12 03:29:58;;;;;;;;;;;14.30;99.90;;;;;;5033135;28;19916;-70
2022/07/12 03:32:23;;;;;;;;;;;14.30;99.90;;;;;;5031808;28;19967;-71
2022/07/12 03:34:49;;;;;;;;;;;14.30;99.90;;;;;;5032977;28;19920;-71
2022/07/12 03:37:15;;;;;;;;;;;14.40;99.90;;;;;;5033190;28;19920;-71
2022/07/12 03:39:40;;;;;;;;;;;14.40;99.90;;;;;;5035822;28;19929;-71
2022/07/12 03:42:05;;;;;;;;;;;14.40;99.90;;;;;;5052906;28;19917;-71
2022/07/12 03:44:31;;;;;;;;;;;14.20;99.90;;;;;;5052887;28;19917;-72
2022/07/12 03:46:58;;;;;;;;;;;14.40;99.90;;;;;;5034708;28;19963;-71
2022/07/12 03:49:23;;;;;;;;;;;14.40;99.90;;;;;;5034714;28;19913;-72
2022/07/12 03:51:49;;;;;;;;;;;14.40;99.90;;;;;;5052913;28;19917;-71
2022/07/12 03:54:14;;;;;;;;;;;14.40;99.90;;;;;;5033759;28;20280;-71
2022/07/12 03:59:24;;;;;;;;;;;14.50;99.90;;;;;;5052812;28;20285;-72
2022/07/12 04:01:49;;;;;;;;;;;14.40;99.90;;;;;;5052408;28;19917;-71
2022/07/12 04:04:15;;;;;;;;;;;14.50;99.90;;;;;;5052391;28;19920;-72
2022/07/12 04:06:40;;;;;;;;;;;14.50;99.90;;;;;;5034377;28;19921;-72
2022/07/12 04:09:06;;;;;;;;;;;14.60;99.90;;;;;;5034358;28;19913;-71
2022/07/12 04:11:31;;;;;;;;;;;14.80;99.90;;;;;;5052191;28;19909;-71
2022/07/12 04:13:57;;;;;;;;;;;14.60;99.90;;;;;;5052309;28;19913;-72
2022/07/12 04:16:22;;;;;;;;;;;14.70;99.90;;;;;;5052263;28;19913;-71
2022/07/12 04:18:48;;;;;;;;;;;14.60;99.90;;;;;;5034331;28;20424;-70
2022/07/12 04:21:13;;;;;;;;;;;14.60;99.90;;;;;;5052248;28;20280;-71
2022/07/12 04:23:39;;;;;;;;;;;14.60;99.90;;;;;;5052348;28;20050;-70
2022/07/12 04:26:04;;;;;;;;;;;14.60;99.90;;;;;;5034181;28;20119;-72
2022/07/12 04:28:30;;;;;;;;;;;14.60;99.90;;;;;;5051679;28;20430;-70
2022/07/12 04:30:55;;;;;;;;;;;15.00;99.90;;;;;;5051988;28;19917;-70
2022/07/12 04:33:21;;;;;;;;;;;14.70;99.90;;;;;;5034031;28;19917;-71
2022/07/12 04:35:46;;;;;;;;;;;14.80;99.90;;;;;;5033803;28;19952;-71
2022/07/12 04:38:12;;;;;;;;;;;14.80;99.90;;;;;;5052079;28;19925;-71
2022/07/12 04:40:37;;;;;;;;;;;14.90;99.90;;;;;;5051562;28;19924;-71
2022/07/12 04:43:03;;;;;;;;;;;14.90;99.90;;;;;;5051900;28;20008;-70
2022/07/12 04:45:28;;;;;;;;;;;14.90;99.90;;;;;;5051787;28;19917;-71
2022/07/12 04:47:54;;;;;;;;;;;14.90;99.90;;;;;;5051811;28;19918;-71
2022/07/12 04:50:19;;;;;;;;;;;14.90;99.90;;;;;;5051471;28;20254;-70
2022/07/12 04:52:45;;;;;;;;;;;14.90;99.90;;;;;;5051770;28;20015;-71
2022/07/12 04:55:10;;;;;;;;;;;14.90;99.90;;;;;;5033373;28;19920;-71
2022/07/12 04:57:36;;;;;;;;;;;15.00;99.90;;;;;;5051521;28;19925;-70
2022/07/12 05:00:03;;;;;;;;;;;15.10;99.90;;;;;;5033478;28;19932;-70
2022/07/12 05:02:29;;;;;;;;;;;15.20;99.90;;;;;;5033400;28;20369;-70
2022/07/12 05:04:54;;;;;;;;;;;15.30;99.90;;;;;;5051253;28;19958;-70
2022/07/12 05:07:20;;;;;;;;;;;15.30;99.90;;;;;;5051190;28;19917;-72
2022/07/12 05:09:45;;;;;;;;;;;15.40;99.90;;;;;;5051256;28;20003;-72
2022/07/12 05:12:11;;;;;;;;;;;15.50;99.90;;;;;;5051088;28;19999;-71
2022/07/12 05:14:36;;;;;;;;;;;15.50;99.90;;;;;;5050898;28;19912;-72
2022/07/12 05:17:02;;;;;;;;;;;15.60;99.90;;;;;;5033218;28;19916;-71
2022/07/12 05:19:27;;;;;;;;;;;15.70;99.90;;;;;;5051547;28;20007;-73
2022/07/12 05:21:53;;;;;;;;;;;15.80;99.90;;;;;;5050973;28;20399;-71
2022/07/12 05:24:18;;;;;;;;;;;15.80;99.90;;;;;;5050959;28;19986;-71
2022/07/12 05:26:44;;;;;;;;;;;15.90;99.90;;;;;;5033229;28;20448;-71
2022/07/12 05:29:10;;;;;;;;;;;15.90;99.90;;;;;;5051478;28;19912;-71
2022/07/12 05:31:35;;;;;;;;;;;15.90;99.90;;;;;;5033165;28;20335;-71
2022/07/12 05:34:01;;;;;;;;;;;15.90;99.90;;;;;;5051001;28;19916;-70
2022/07/12 05:36:27;;;;;;;;;;;16.00;99.90;;;;;;5050848;28;19967;-71
2022/07/12 05:38:52;;;;;;;;;;;16.20;99.90;;;;;;5050911;28;19916;-72
2022/07/12 05:41:18;;;;;;;;;;;16.30;99.90;;;;;;5050872;28;19924;-71
2022/07/12 05:43:46;;;;;;;;;;;16.40;99.90;;;;;;5032548;28;19924;-71
2022/07/12 05:46:12;;;;;;;;;;;16.30;99.90;;;;;;5050862;28;20252;-70
2022/07/12 05:48:38;;;;;;;;;;;16.50;99.90;;;;;;5050921;28;19917;-71
2022/07/12 05:53:47;;;;;;;;;;;16.60;99.90;;;;;;5050869;28;20287;-71
2022/07/12 05:56:13;;;;;;;;;;;16.60;99.90;;;;;;5050294;28;19996;-71
2022/07/12 05:58:38;;;;;;;;;;;16.60;99.90;;;;;;5050594;28;19928;-70
2022/07/12 06:01:05;;;;;;;;;;;16.70;99.90;;;;;;5050460;28;20002;-71
2022/07/12 06:03:31;;;;;;;;;;;16.80;99.90;;;;;;5032804;28;19925;-71
2022/07/12 06:05:56;;;;;;;;;;;16.80;99.90;;;;;;5050636;28;19909;-71
2022/07/12 06:08:22;;;;;;;;;;;16.70;99.90;;;;;;5050123;28;19921;-72
2022/07/12 06:10:47;;;;;;;;;;;16.70;99.90;;;;;;5032416;28;20003;-72
2022/07/12 06:13:13;;;;;;;;;;;16.70;99.90;;;;;;5032416;28;19920;-72
2022/07/12 06:15:38;;;;;;;;;;;16.80;99.90;;;;;;5032104;28;19917;-72
2022/07/12 06:18:04;;;;;;;;;;;17.00;99.90;;;;;;5053420;28;19917;-72
2022/07/12 06:20:29;;;;;;;;;;;17.30;99.90;;;;;;5036555;28;19913;-72
2022/07/12 06:22:55;;;;;;;;;;;17.50;99.90;;;;;;5054430;28;19917;-71
2022/07/12 06:25:21;;;;;;;;;;;17.40;99.90;;;;;;5054336;28;19908;-71
2022/07/12 06:27:47;;;;;;;;;;;17.50;99.90;;;;;;5054813;28;20006;-71
2022/07/12 06:30:17;;;;;;;;;;;17.50;99.90;;;;;;5054262;28;20007;-72
2022/07/12 06:32:43;;;;;;;;;;;17.50;99.90;;;;;;5054550;28;20272;-71
2022/07/12 06:35:08;;;;;;;;;;;17.50;99.90;;;;;;5053943;28;19913;-71
2022/07/12 06:37:34;;;;;;;;;;;17.60;99.90;;;;;;5036175;28;19928;-71
2022/07/12 06:39:59;;;;;;;;;;;17.50;99.90;;;;;;5054033;28;19921;-71
2022/07/12 06:42:25;;;;;;;;;;;17.70;99.90;;;;;;5036015;28;19986;-72
2022/07/12 06:44:50;;;;;;;;;;;17.80;99.90;;;;;;5053924;28;20027;-72
2022/07/12 06:47:16;;;;;;;;;;;18.00;99.90;;;;;;5035932;28;20051;-72
2022/07/12 06:49:42;;;;;;;;;;;18.10;99.90;;;;;;5054011;28;19952;-72
2022/07/12 06:52:07;;;;;;;;;;;18.20;99.90;;;;;;5035700;28;19917;-71
2022/07/12 06:54:33;;;;;;;;;;;18.10;99.90;;;;;;5035353;28;19912;-71
2022/07/12 06:56:58;;;;;;;;;;;18.20;99.90;;;;;;5053532;28;19924;-71
2022/07/12 06:59:24;;;;;;;;;;;18.20;99.90;;;;;;5035554;28;20275;-71
2022/07/12 07:01:50;;;;;;;;;;;18.20;99.90;;;;;;5053446;28;19964;-72
2022/07/12 07:04:15;;;;;;;;;;;18.30;99.90;;;;;;5053346;28;19928;-72
2022/07/12 07:06:41;;;;;;;;;;;18.50;99.90;;;;;;5035779;28;20445;-71
2022/07/12 07:09:07;;;;;;;;;;;18.70;99.90;;;;;;5053345;28;19912;-73
2022/07/12 07:11:33;;;;;;;;;;;18.80;99.90;;;;;;5053677;28;19909;-73
2022/07/12 07:13:58;;;;;;;;;;;18.60;99.90;;;;;;5053335;28;20352;-72
2022/07/12 07:16:24;;;;;;;;;;;18.40;99.90;;;;;;5052988;28;19936;-71
2022/07/12 07:18:50;;;;;;;;;;;18.40;99.90;;;;;;5053592;28;19924;-71
2022/07/12 07:21:15;;;;;;;;;;;18.40;99.90;;;;;;5052796;28;20030;-65
2022/07/12 07:23:41;;;;;;;;;;;18.30;99.90;;;;;;5053011;28;20304;-65
2022/07/12 07:26:06;;;;;;;;;;;18.40;99.90;;;;;;5034429;28;19913;-66
2022/07/12 07:28:32;;;;;;;;;;;18.30;99.90;;;;;;5051369;28;19978;-65
2022/07/12 07:30:58;;;;;;;;;;;18.40;99.90;;;;;;5052660;28;19912;-66
2022/07/12 07:33:24;;;;;;;;;;;18.40;99.90;;;;;;5052665;28;19917;-66
2022/07/12 07:35:50;;;;;;;;;;;18.50;99.90;;;;;;5052552;28;20372;-65
2022/07/12 07:38:16;;;;;;;;;;;18.60;99.90;;;;;;5052764;28;20404;-66
2022/07/12 07:40:42;;;;;;;;;;;18.70;99.90;;;;;;5052384;28;19920;-67
2022/07/12 07:43:07;;;;;;;;;;;18.60;99.90;;;;;;5052780;28;20427;-66
2022/07/12 07:45:33;;;;;;;;;;;18.60;99.90;;;;;;5052402;28;19996;-66
2022/07/12 07:47:59;;;;;;;;;;;18.50;99.90;;;;;;5052095;28;19921;-66
2022/07/12 07:50:24;;;;;;;;;;;18.40;99.90;;;;;;5052134;28;19909;-65
2022/07/12 07:52:51;;;;;;;;;;;18.50;99.90;;;;;;5034146;28;20365;-66
2022/07/12 07:55:17;;;;;;;;;;;18.60;99.90;;;;;;5052243;28;20329;-65
2022/07/12 07:57:42;;;;;;;;;;;18.70;99.90;;;;;;5051965;28;19912;-65
2022/07/12 08:00:08;;;;;;;;;;;18.80;99.90;;;;;;5052018;28;19913;-64
2022/07/12 08:02:34;;;;;;;;;;;18.80;99.90;;;;;;5051966;28;19926;-66
2022/07/12 08:04:59;;;;;;;;;;;18.70;99.90;;;;;;5051863;28;19916;-65
2022/07/12 08:07:25;;;;;;;;;;;18.30;99.90;;;;;;5051731;28;20387;-66
2022/07/12 08:09:50;;;;;;;;;;;18.30;99.90;;;;;;5051686;28;19912;-66
2022/07/12 08:12:16;;;;;;;;;;;18.40;99.90;;;;;;5051667;28;19917;-64
2022/07/12 08:14:41;;;;;;;;;;;18.40;99.90;;;;;;5051700;28;19935;-65
2022/07/12 08:17:07;;;;;;;;;;;18.50;99.90;;;;;;5051747;28;19913;-65
2022/07/12 08:19:32;;;;;;;;;;;18.60;99.90;;;;;;5051463;28;19967;-65
2022/07/12 08:21:57;;;;;;;;;;;18.80;99.90;;;;;;5051584;28;20027;-66
2022/07/12 08:24:23;;;;;;;;;;;19.00;99.90;;;;;;5056825;28;19916;-65
2022/07/12 08:26:49;;;;;;;;;;;19.00;99.90;;;;;;5062460;28;19924;-66
2022/07/12 08:29:15;;;;;;;;;;;18.90;99.90;;;;;;5033210;28;19908;-65
2022/07/12 08:31:40;;;;;;;;;;;19.00;99.90;;;;;;5051129;28;19959;-65
2022/07/12 08:34:06;;;;;;;;;;;19.10;99.90;;;;;;5051613;28;19927;-66
2022/07/12 08:36:31;;;;;;;;;;;19.40;99.90;;;;;;5033145;28;20308;-65
2022/07/12 08:38:57;;;;;;;;;;;19.70;99.90;;;;;;5051110;28;19948;-64
2022/07/12 08:41:22;;;;;;;;;;;20.30;99.90;;;;;;5050325;28;19924;-65
2022/07/12 08:43:48;;;;;;;;;;;20.70;99.90;;;;;;5033515;28;20373;-65
2022/07/12 08:46:14;;;;;;;;;;;21.00;99.90;;;;;;5051227;28;19909;-65
2022/07/12 08:48:40;;;;;;;;;;;21.30;99.90;;;;;;5051257;28;19921;-65
2022/07/12 08:51:06;;;;;;;;;;;21.30;99.90;;;;;;5033090;28;20376;-65
2022/07/12 08:53:32;;;;;;;;;;;21.10;99.90;;;;;;5051364;28;19921;-65
2022/07/12 08:55:58;;;;;;;;;;;20.90;99.90;;;;;;5051016;28;19912;-66
2022/07/12 08:58:23;;;;;;;;;;;20.60;99.90;;;;;;5050965;28;19923;-63
2022/07/12 09:00:49;;;;;;;;;;;20.40;99.90;;;;;;5049626;28;20254;-64
2022/07/12 09:03:15;;;;;;;;;;;20.40;99.90;;;;;;5049589;28;20316;-65
2022/07/12 09:05:47;;;;;;;;;;;20.20;99.90;;;;;;5031405;28;19932;-65
2022/07/12 09:08:12;;;;;;;;;;;20.30;99.90;;;;;;5049419;28;19917;-72
2022/07/12 09:10:50;;;;;;;;;;;20.60;99.90;;;;;;5049552;28;19932;-66
2022/07/12 09:13:15;;;;;;;;;;;20.80;99.90;;;;;;5031721;28;19924;-64
2022/07/12 09:15:41;;;;;;;;;;;21.00;99.90;;;;;;5050769;28;20281;-66
2022/07/12 09:18:15;;;;;;;;;;;21.00;99.90;;;;;;5049348;28;19943;-66
2022/07/12 09:20:41;;;;;;;;;;;21.20;99.90;;;;;;5049109;28;20269;-65
2022/07/12 09:23:08;;;;;;;;;;;21.60;99.90;;;;;;5030874;28;19928;-66
2022/07/12 09:25:34;;;;;;;;;;;22.00;99.90;;;;;;5048592;28;19951;-67
2022/07/12 09:28:02;;;;;;;;;;;22.40;99.90;;;;;;5048701;28;19968;-66
2022/07/12 09:30:28;;;;;;;;;;;22.80;99.90;;;;;;5048739;28;19931;-66
2022/07/12 09:36:06;;;;;;;;;;;23.10;99.90;;;;;;5050263;28;19924;-66
2022/07/12 09:38:37;;;;;;;;;;;22.50;99.70;;;;;;5050522;28;20004;-65
2022/07/12 09:41:03;;;;;;;;;;;22.30;99.40;;;;;;5050326;28;20369;-66
2022/07/12 09:43:30;;;;;;;;;;;22.30;99.90;;;;;;5050152;28;20377;-66
2022/07/12 09:45:55;;;;;;;;;;;22.50;99.90;;;;;;5050478;28;19958;-67
2022/07/12 09:48:25;;;;;;;;;;;22.80;99.90;;;;;;5050364;28;19916;-65
2022/07/12 09:50:51;;;;;;;;;;;22.80;99.10;;;;;;5050021;28;19909;-66
2022/07/12 09:53:21;;;;;;;;;;;22.40;99.90;;;;;;5049996;28;19921;-66
2022/07/12 09:55:50;;;;;;;;;;;22.40;99.90;;;;;;5049982;28;19959;-66
2022/07/12 09:58:21;;;;;;;;;;;22.50;99.70;;;;;;5050138;28;20019;-66
2022/07/12 10:00:47;;;;;;;;;;;22.70;99.90;;;;;;5050023;28;19920;-66
2022/07/12 10:03:13;;;;;;;;;;;23.10;99.00;;;;;;5050387;28;19993;-65
2022/07/12 10:05:41;;;;;;;;;;;23.10;99.20;;;;;;5049955;28;19908;-66
2022/07/12 10:08:07;;;;;;;;;;;22.90;98.40;;;;;;5049893;28;19924;-66
2022/07/12 10:10:32;;;;;;;;;;;22.50;99.00;;;;;;5050213;28;19909;-66
2022/07/12 10:12:58;;;;;;;;;;;22.60;99.40;;;;;;5049700;28;19928;-66
2022/07/12 10:15:26;;;;;;;;;;;22.70;98.50;;;;;;5050429;28;20306;-65
2022/07/12 10:17:54;;;;;;;;;;;23.10;99.50;;;;;;5031894;28;20007;-65
2022/07/12 10:20:22;;;;;;;;;;;23.10;99.00;;;;;;5049948;28;19915;-66
2022/07/12 10:22:47;;;;;;;;;;;22.80;97.90;;;;;;5050089;28;20395;-67
2022/07/12 10:25:25;;;;;;;;;;;22.30;98.20;;;;;;5050001;28;19909;-65
2022/07/12 10:27:51;;;;;;;;;;;22.00;99.00;;;;;;5049653;28;19964;-64
2022/07/12 10:30:18;;;;;;;;;;;21.50;98.80;;;;;;5049871;28;20013;-65
2022/07/12 10:32:44;;;;;;;;;;;21.40;99.30;;;;;;5049952;28;19921;-65
2022/07/12 10:35:15;;;;;;;;;;;21.60;99.90;;;;;;5049950;28;19913;-65
2022/07/12 10:37:40;;;;;;;;;;;22.00;99.50;;;;;;5049894;28;19921;-66
2022/07/12 10:40:16;;;;;;;;;;;22.80;98.70;;;;;;5049779;28;19924;-65
2022/07/12 10:43:05;;;;;;;;;;;23.40;97.50;;;;;;5049753;28;19917;-64
2022/07/12 10:45:36;;;;;;;;;;;23.80;96.50;;;;;;5043538;28;19915;-65
2022/07/12 10:48:07;;;;;;;;;;;23.90;96.10;;;;;;5049159;28;20422;-65
2022/07/12 10:51:02;;;;;;;;;;;23.60;96.70;;;;;;5050015;28;19909;-65
2022/07/12 10:53:32;;;;;;;;;;;23.60;97.00;;;;;;5049889;28;19916;-65
2022/07/12 10:56:07;;;;;;;;;;;23.40;97.30;;;;;;5049777;28;19920;-66
2022/07/12 10:58:32;;;;;;;;;;;23.20;97.70;;;;;;5049749;28;19924;-65
2022/07/12 11:00:59;;;;;;;;;;;22.60;98.30;;;;;;5049706;28;20285;-66
2022/07/12 11:03:30;;;;;;;;;;;22.10;98.20;;;;;;5051244;28;19917;-65
2022/07/12 11:06:05;;;;;;;;;;;21.50;99.90;;;;;;5053649;28;20229;-66
2022/07/12 11:08:30;;;;;;;;;;;21.30;99.90;;;;;;5053359;28;20002;-66
2022/07/12 11:10:58;;;;;;;;;;;21.20;99.90;;;;;;5053231;28;19934;-65
2022/07/12 11:13:25;;;;;;;;;;;21.70;99.90;;;;;;5053359;28;20250;-65
2022/07/12 11:16:00;;;;;;;;;;;22.40;99.90;;;;;;5053195;28;19974;-66
2022/07/12 11:18:33;;;;;;;;;;;22.40;99.90;;;;;;5053085;28;19917;-66
2022/07/12 11:20:59;;;;;;;;;;;22.20;99.30;;;;;;5052968;28;19916;-65
2022/07/12 11:23:26;;;;;;;;;;;22.20;99.40;;;;;;5052626;28;19917;-66
2022/07/12 11:25:55;;;;;;;;;;;22.20;99.50;;;;;;5052521;28;19908;-66
2022/07/12 11:28:22;;;;;;;;;;;22.10;99.80;;;;;;5052705;28;20350;-66
2022/07/12 11:30:49;;;;;;;;;;;22.50;99.60;;;;;;5052882;28;19912;-65
2022/07/12 11:33:14;;;;;;;;;;;23.00;99.30;;;;;;5052988;28;20314;-66
2022/07/12 11:35:42;;;;;;;;;;;23.20;99.90;;;;;;5052534;28;20004;-65
2022/07/12 11:38:08;;;;;;;;;;;23.10;98.20;;;;;;5052809;28;19916;-66
2022/07/12 11:40:33;;;;;;;;;;;22.60;99.80;;;;;;5052620;28;20436;-64
2022/07/12 11:43:00;;;;;;;;;;;22.40;99.90;;;;;;5052838;28;19970;-64
2022/07/12 11:45:29;;;;;;;;;;;22.10;99.90;;;;;;5052992;28;20395;-65
2022/07/12 11:47:56;;;;;;;;;;;21.80;99.90;;;;;;5052649;28;19913;-66
2022/07/12 11:50:21;;;;;;;;;;;21.50;99.90;;;;;;5052751;28;19917;-72
2022/07/12 11:52:47;;;;;;;;;;;21.30;99.90;;;;;;5052612;28;19961;-73
2022/07/12 11:55:13;;;;;;;;;;;21.20;99.90;;;;;;5052405;28;20300;-73
2022/07/12 11:57:38;;;;;;;;;;;20.80;99.90;;;;;;5052937;28;19978;-72
2022/07/12 12:00:16;;;;;;;;;;;20.40;99.90;;;;;;5034247;28;20369;-72
2022/07/12 12:02:42;;;;;;;;;;;20.10;99.90;;;;;;5052317;28;20129;-73
2022/07/12 12:05:07;;;;;;;;;;;19.70;99.90;;;;;;5052006;28;20412;-73
2022/07/12 12:07:33;;;;;;;;;;;19.40;99.90;;;;;;5034313;28;19924;-73
2022/07/12 12:10:06;;;;;;;;;;;18.30;99.90;;;;;;5052936;28;19969;-73
2022/07/12 12:12:38;;;;;;;;;;;19.10;99.90;;;;;;5052488;28;19913;-74
2022/07/12 12:15:08;;;;;;;;;;;18.90;99.90;;;;;;5032954;28;19921;-72
2022/07/12 12:17:34;;;;;;;;;;;18.70;99.90;;;;;;5034032;28;20370;-72
2022/07/12 12:20:32;;;;;;;;;;;18.50;99.90;;;;;;5033885;28;19938;-72
2022/07/12 12:23:01;;;;;;;;;;;18.20;99.90;;;;;;5028691;28;19924;-72
2022/07/12 12:25:27;;;;;;;;;;;17.70;99.90;;;;;;5033560;28;19955;-72
2022/07/12 12:27:57;;;;;;;;;;;17.20;99.90;;;;;;5034002;28;19975;-72
2022/07/12 12:30:22;;;;;;;;;;;16.50;99.90;;;;;;5051782;28;20412;-72
2022/07/12 12:32:52;;;;;;;;;;;15.90;99.90;;;;;;5033791;28;20003;-73
2022/07/12 12:35:22;;;;;;;;;;;15.60;99.90;;;;;;5051475;28;19948;-72
2022/07/12 12:37:57;;;;;;;;;;;15.30;99.90;;;;;;5051860;28;20268;-72
2022/07/12 12:40:26;;;;;;;;;;;15.10;99.90;;;;;;5051625;28;20323;-72
2022/07/12 12:42:52;;;;;;;;;;;15.00;99.90;;;;;;5052170;28;19921;-73
2022/07/12 12:45:21;;;;;;;;;;;15.10;99.90;;;;;;5051614;28;20007;-72
2022/07/12 12:47:53;;;;;;;;;;;15.10;99.90;;;;;;5033435;28;19917;-73
2022/07/12 12:50:35;;;;;;;;;;;15.10;99.90;;;;;;5033596;28;20288;-72
2022/07/12 12:53:05;;;;;;;;;;;15.10;99.90;;;;;;5051799;28;19950;-72
2022/07/12 12:55:31;;;;;;;;;;;15.00;99.90;;;;;;5051657;28;19939;-72
2022/07/12 12:57:56;;;;;;;;;;;15.00;99.90;;;;;;5051302;28;19920;-72
2022/07/12 13:00:22;;;;;;;;;;;15.00;99.90;;;;;;5050958;28;19912;-71
2022/07/12 13:02:48;;;;;;;;;;;14.90;99.90;;;;;;5051229;28;19923;-72
2022/07/12 13:05:13;;;;;;;;;;;14.90;99.90;;;;;;5051052;28;19916;-72
2022/07/12 13:07:39;;;;;;;;;;;14.90;99.90;;;;;;5051445;28;19974;-72
2022/07/12 13:10:04;;;;;;;;;;;14.90;99.90;;;;;;5051400;28;19913;-72
2022/07/12 13:12:30;;;;;;;;;;;15.00;99.90;;;;;;5033076;28;19917;-71
2022/07/12 13:14:56;;;;;;;;;;;15.10;99.90;;;;;;5050917;28;19927;-72
2022/07/12 13:17:21;;;;;;;;;;;15.20;99.90;;;;;;5050993;28;20432;-71
2022/07/12 13:19:47;;;;;;;;;;;15.30;99.90;;;;;;5050770;28;19960;-73
2022/07/12 13:22:12;;;;;;;;;;;15.40;99.90;;;;;;5032859;28;19917;-71
2022/07/12 13:24:38;;;;;;;;;;;15.50;99.90;;;;;;5050588;28;19928;-72
2022/07/12 13:27:04;;;;;;;;;;;15.60;99.90;;;;;;5050716;28;19920;-71
2022/07/12 13:29:29;;;;;;;;;;;15.60;99.90;;;;;;5050701;28;20376;-71
2022/07/12 13:31:56;;;;;;;;;;;15.70;99.90;;;;;;5050511;28;19923;-72
2022/07/12 13:34:21;;;;;;;;;;;15.80;99.90;;;;;;5050681;28;19913;-72
2022/07/12 13:36:47;;;;;;;;;;;15.90;99.90;;;;;;5050510;28;20521;-71
2022/07/12 13:41:57;;;;;;;;;;;16.20;99.90;;;;;;5050887;28;19948;-72
2022/07/12 13:44:23;;;;;;;;;;;16.30;99.90;;;;;;5050818;28;20356;-73
2022/07/12 13:46:49;;;;;;;;;;;16.50;99.90;;;;;;5032550;28;20333;-72
2022/07/12 13:49:14;;;;;;;;;;;16.70;99.90;;;;;;5050925;28;20353;-73
2022/07/12 13:51:40;;;;;;;;;;;16.90;99.90;;;;;;5050570;28;20228;-72
2022/07/12 13:54:07;;;;;;;;;;;17.10;99.90;;;;;;5050545;28;19909;-73
2022/07/12 13:56:33;;;;;;;;;;;17.00;99.90;;;;;;5050016;28;19913;-70
2022/07/12 13:58:59;;;;;;;;;;;17.30;99.90;;;;;;5050125;28;19962;-72
2022/07/12 14:01:25;;;;;;;;;;;17.30;99.90;;;;;;5050577;28;19916;-71
2022/07/12 14:03:50;;;;;;;;;;;17.30;99.90;;;;;;5050268;28;19921;-72
2022/07/12 14:06:16;;;;;;;;;;;17.40;99.90;;;;;;5032360;28;19909;-72
2022/07/12 14:08:41;;;;;;;;;;;17.50;99.90;;;;;;5050686;28;19916;-72
2022/07/12 14:11:07;;;;;;;;;;;17.60;99.90;;;;;;5050250;28;19916;-73
2022/07/12 14:13:32;;;;;;;;;;;17.70;99.90;;;;;;5050749;28;20328;-73
2022/07/12 14:15:59;;;;;;;;;;;17.60;99.90;;;;;;5032313;28;19916;-72
2022/07/12 14:18:24;;;;;;;;;;;17.60;99.90;;;;;;5032428;28;19928;-73
2022/07/12 14:20:51;;;;;;;;;;;17.50;99.90;;;;;;5050101;28;19913;-73
2022/07/12 14:23:16;;;;;;;;;;;17.50;99.90;;;;;;5032391;28;19921;-73